sensor_id;sensor_type;location;lat;lon;timestamp;temperature;humidity
7686;DHT22;3885;51.474;-2.576;2022-07-29T00:01:30;15.40;99.90
7686;DHT22;3885;51.474;-2.576;2022-07-29T00:03:57;15.30;99.90
7686;DHT22;3885;51.474;-2.576;2022-07-29T00:06:24;15.30;99.90
7686;DHT22;3885;51.474;-2.576;2022-07-29T00:08:51;15.30;99.90
7686;DHT22;3885;51.474;-2.576;2022-07-29T00:11:19;15.30;99.90
7686;DHT22;3885;51.474;-2.576;2022-07-29T00:13:46;15.20;99.90
7686;DHT22;3885;51.474;-2.576;2022-07-29T00:16:13;15.20;99.90
7686;DHT22;3885;51.474;-2.576;2022-07-29T00:18:40;15.20;99.90
7686;DHT22;3885;51.474;-2.576;2022-07-29T00:21:07;15.10;99.90
7686;DHT22;3885;51.474;-2.576;2022-07-29T00:23:34;15.10;99.90
7686;DHT22;3885;51.474;-2.576;2022-07-29T00:26:01;15.10;99.90
7686;DHT22;3885;51.474;-2.576;2022-07-29T00:28:29;15.00;99.90
7686;DHT22;3885;51.474;-2.576;2022-07-29T00:30:56;14.90;99.90
7686;DHT22;3885;51.474;-2.576;2022-07-29T00:33:23;14.90;99.90
7686;DHT22;3885;51.474;-2.576;2022-07-29T00:35:50;15.00;99.90
7686;DHT22;3885;51.474;-2.576;2022-07-29T00:38:17;14.90;99.90
7686;DHT22;3885;51.474;-2.576;2022-07-29T00:40:45;14.80;99.90
7686;DHT22;3885;51.474;-2.576;2022-07-29T00:43:13;14.80;99.90
7686;DHT22;3885;51.474;-2.576;2022-07-29T00:45:42;14.80;99.90
7686;DHT22;3885;51.474;-2.576;2022-07-29T00:48:09;14.80;99.90
7686;DHT22;3885;51.474;-2.576;2022-07-29T00:50:37;14.80;99.90
7686;DHT22;3885;51.474;-2.576;2022-07-29T00:53:06;14.80;99.90
7686;DHT22;3885;51.474;-2.576;2022-07-29T00:55:33;14.70;99.90
7686;DHT22;3885;51.474;-2.576;2022-07-29T00:58:00;14.70;99.90
7686;DHT22;3885;51.474;-2.576;2022-07-29T01:00:28;14.70;99.90
7686;DHT22;3885;51.474;-2.576;2022-07-29T01:02:57;14.70;99.90
7686;DHT22;3885;51.474;-2.576;2022-07-29T01:05:26;14.70;99.90
7686;DHT22;3885;51.474;-2.576;2022-07-29T01:07:54;14.60;99.90
7686;DHT22;3885;51.474;-2.576;2022-07-29T01:10:23;14.60;99.90
7686;DHT22;3885;51.474;-2.576;2022-07-29T01:12:52;14.60;99.90
7686;DHT22;3885;51.474;-2.576;2022-07-29T01:15:21;14.60;99.90
7686;DHT22;3885;51.474;-2.576;2022-07-29T01:17:54;14.60;99.90
7686;DHT22;3885;51.474;-2.576;2022-07-29T01:20:34;14.60;99.90
7686;DHT22;3885;51.474;-2.576;2022-07-29T01:23:48;14.50;99.90
7686;DHT22;3885;51.474;-2.576;2022-07-29T01:26:31;14.50;99.90
7686;DHT22;3885;51.474;-2.576;2022-07-29T01:29:06;14.40;99.90
7686;DHT22;3885;51.474;-2.576;2022-07-29T01:31:43;14.40;99.90
7686;DHT22;3885;51.474;-2.576;2022-07-29T01:34:16;14.40;99.90
7686;DHT22;3885;51.474;-2.576;2022-07-29T01:36:48;14.40;99.90
7686;DHT22;3885;51.474;-2.576;2022-07-29T01:39:19;14.40;99.90
7686;DHT22;3885;51.474;-2.576;2022-07-29T01:41:50;14.40;99.90
7686;DHT22;3885;51.474;-2.576;2022-07-29T01:44:26;14.40;99.90
7686;DHT22;3885;51.474;-2.576;2022-07-29T01:47:00;14.40;99.90
7686;DHT22;3885;51.474;-2.576;2022-07-29T01:49:31;14.40;99.90
7686;DHT22;3885;51.474;-2.576;2022-07-29T01:52:05;14.40;99.90
7686;DHT22;3885;51.474;-2.576;2022-07-29T01:54:37;14.30;99.90
7686;DHT22;3885;51.474;-2.576;2022-07-29T01:57:09;14.30;99.90
7686;DHT22;3885;51.474;-2.576;2022-07-29T01:59:40;14.30;99.90
7686;DHT22;3885;51.474;-2.576;2022-07-29T02:02:09;14.30;99.90
7686;DHT22;3885;51.474;-2.576;2022-07-29T02:04:37;14.30;99.90
7686;DHT22;3885;51.474;-2.576;2022-07-29T02:07:06;14.30;99.90
7686;DHT22;3885;51.474;-2.576;2022-07-29T02:09:36;14.30;99.90
7686;DHT22;3885;51.474;-2.576;2022-07-29T02:12:04;14.30;99.90
7686;DHT22;3885;51.474;-2.576;2022-07-29T02:14:34;14.30;99.90
7686;DHT22;3885;51.474;-2.576;2022-07-29T02:17:04;14.30;99.90
7686;DHT22;3885;51.474;-2.576;2022-07-29T02:19:32;14.30;99.90
7686;DHT22;3885;51.474;-2.576;2022-07-29T02:22:00;14.30;99.90
7686;DHT22;3885;51.474;-2.576;2022-07-29T02:24:28;14.30;99.90
7686;DHT22;3885;51.474;-2.576;2022-07-29T02:26:57;14.30;99.90
7686;DHT22;3885;51.474;-2.576;2022-07-29T02:29:26;14.20;99.90
7686;DHT22;3885;51.474;-2.576;2022-07-29T02:31:55;14.20;99.90
7686;DHT22;3885;51.474;-2.576;2022-07-29T02:34:25;14.20;99.90
7686;DHT22;3885;51.474;-2.576;2022-07-29T02:36:52;14.10;99.90
7686;DHT22;3885;51.474;-2.576;2022-07-29T02:39:22;14.20;99.90
7686;DHT22;3885;51.474;-2.576;2022-07-29T02:41:51;14.20;99.90
7686;DHT22;3885;51.474;-2.576;2022-07-29T02:44:20;14.10;99.90
7686;DHT22;3885;51.474;-2.576;2022-07-29T02:46:52;14.10;99.90
7686;DHT22;3885;51.474;-2.576;2022-07-29T02:49:30;14.00;99.90
7686;DHT22;3885;51.474;-2.576;2022-07-29T02:52:01;13.90;99.90
7686;DHT22;3885;51.474;-2.576;2022-07-29T02:54:36;13.90;99.90
7686;DHT22;3885;51.474;-2.576;2022-07-29T02:57:10;13.90;99.90
7686;DHT22;3885;51.474;-2.576;2022-07-29T02:59:41;13.90;99.90
7686;DHT22;3885;51.474;-2.576;2022-07-29T03:02:09;13.80;99.90
7686;DHT22;3885;51.474;-2.576;2022-07-29T03:04:40;13.70;99.90
7686;DHT22;3885;51.474;-2.576;2022-07-29T03:07:09;13.70;99.90
7686;DHT22;3885;51.474;-2.576;2022-07-29T03:09:37;13.60;99.90
7686;DHT22;3885;51.474;-2.576;2022-07-29T03:12:05;13.60;99.90
7686;DHT22;3885;51.474;-2.576;2022-07-29T03:14:33;13.60;99.90
7686;DHT22;3885;51.474;-2.576;2022-07-29T03:17:00;13.50;99.90
7686;DHT22;3885;51.474;-2.576;2022-07-29T03:19:27;13.50;99.90
7686;DHT22;3885;51.474;-2.576;2022-07-29T03:21:57;13.50;99.90
7686;DHT22;3885;51.474;-2.576;2022-07-29T03:24:25;13.40;99.90
7686;DHT22;3885;51.474;-2.576;2022-07-29T03:26:53;13.40;99.90
7686;DHT22;3885;51.474;-2.576;2022-07-29T03:29:20;13.40;99.90
7686;DHT22;3885;51.474;-2.576;2022-07-29T03:31:47;13.30;99.90
7686;DHT22;3885;51.474;-2.576;2022-07-29T03:34:14;13.20;99.90
7686;DHT22;3885;51.474;-2.576;2022-07-29T03:36:41;13.20;99.90
7686;DHT22;3885;51.474;-2.576;2022-07-29T03:39:10;13.20;99.90
7686;DHT22;3885;51.474;-2.576;2022-07-29T03:41:39;13.20;99.90
7686;DHT22;3885;51.474;-2.576;2022-07-29T03:44:07;13.20;99.90
7686;DHT22;3885;51.474;-2.576;2022-07-29T03:46:35;13.10;99.90
7686;DHT22;3885;51.474;-2.576;2022-07-29T03:49:04;13.10;99.90
7686;DHT22;3885;51.474;-2.576;2022-07-29T03:51:33;13.10;99.90
7686;DHT22;3885;51.474;-2.576;2022-07-29T03:54:01;13.10;99.90
7686;DHT22;3885;51.474;-2.576;2022-07-29T03:56:29;13.00;99.90
7686;DHT22;3885;51.474;-2.576;2022-07-29T03:58:59;13.00;99.90
7686;DHT22;3885;51.474;-2.576;2022-07-29T04:01:28;13.00;99.90
7686;DHT22;3885;51.474;-2.576;2022-07-29T04:03:55;13.00;99.90
7686;DHT22;3885;51.474;-2.576;2022-07-29T04:06:23;12.90;99.90
7686;DHT22;3885;51.474;-2.576;2022-07-29T04:08:51;12.90;99.90
7686;DHT22;3885;51.474;-2.576;2022-07-29T04:11:18;12.90;99.90
7686;DHT22;3885;51.474;-2.576;2022-07-29T04:13:46;12.80;99.90
7686;DHT22;3885;51.474;-2.576;2022-07-29T04:16:13;12.70;99.90
7686;DHT22;3885;51.474;-2.576;2022-07-29T04:18:40;12.60;99.90
7686;DHT22;3885;51.474;-2.576;2022-07-29T04:21:07;12.60;99.90
7686;DHT22;3885;51.474;-2.576;2022-07-29T04:23:34;12.60;99.90
7686;DHT22;3885;51.474;-2.576;2022-07-29T04:26:01;12.60;99.90
7686;DHT22;3885;51.474;-2.576;2022-07-29T04:28:28;12.50;99.90
7686;DHT22;3885;51.474;-2.576;2022-07-29T04:30:56;12.50;99.90
7686;DHT22;3885;51.474;-2.576;2022-07-29T04:33:23;12.40;99.90
7686;DHT22;3885;51.474;-2.576;2022-07-29T04:35:50;12.40;99.90
7686;DHT22;3885;51.474;-2.576;2022-07-29T04:38:17;12.40;99.90
7686;DHT22;3885;51.474;-2.576;2022-07-29T04:40:44;12.40;99.90
7686;DHT22;3885;51.474;-2.576;2022-07-29T04:43:10;12.40;99.90
7686;DHT22;3885;51.474;-2.576;2022-07-29T04:45:37;12.30;99.90
7686;DHT22;3885;51.474;-2.576;2022-07-29T04:48:06;12.30;99.90
7686;DHT22;3885;51.474;-2.576;2022-07-29T04:50:33;12.30;99.90
7686;DHT22;3885;51.474;-2.576;2022-07-29T04:53:00;12.20;99.90
7686;DHT22;3885;51.474;-2.576;2022-07-29T04:55:27;12.20;99.90
7686;DHT22;3885;51.474;-2.576;2022-07-29T04:57:54;12.20;99.90
7686;DHT22;3885;51.474;-2.576;2022-07-29T05:00:20;12.10;99.90
7686;DHT22;3885;51.474;-2.576;2022-07-29T05:02:48;12.20;99.90
7686;DHT22;3885;51.474;-2.576;2022-07-29T05:05:17;12.10;99.90
7686;DHT22;3885;51.474;-2.576;2022-07-29T05:07:44;12.10;99.90
7686;DHT22;3885;51.474;-2.576;2022-07-29T05:10:10;12.20;99.90
7686;DHT22;3885;51.474;-2.576;2022-07-29T05:12:38;12.20;99.90
7686;DHT22;3885;51.474;-2.576;2022-07-29T05:15:06;12.20;99.90
7686;DHT22;3885;51.474;-2.576;2022-07-29T05:17:33;12.20;99.90
7686;DHT22;3885;51.474;-2.576;2022-07-29T05:20:00;12.20;99.90
7686;DHT22;3885;51.474;-2.576;2022-07-29T05:22:28;12.20;99.90
7686;DHT22;3885;51.474;-2.576;2022-07-29T05:24:55;12.20;99.90
7686;DHT22;3885;51.474;-2.576;2022-07-29T05:27:22;12.20;99.90
7686;DHT22;3885;51.474;-2.576;2022-07-29T05:29:49;12.20;99.90
7686;DHT22;3885;51.474;-2.576;2022-07-29T05:32:16;12.20;99.90
7686;DHT22;3885;51.474;-2.576;2022-07-29T05:34:43;12.30;99.90
7686;DHT22;3885;51.474;-2.576;2022-07-29T05:37:10;12.30;99.90
7686;DHT22;3885;51.474;-2.576;2022-07-29T05:39:40;12.40;99.90
7686;DHT22;3885;51.474;-2.576;2022-07-29T05:42:08;12.40;99.90
7686;DHT22;3885;51.474;-2.576;2022-07-29T05:44:36;12.50;99.90
7686;DHT22;3885;51.474;-2.576;2022-07-29T05:47:03;12.60;99.90
7686;DHT22;3885;51.474;-2.576;2022-07-29T05:49:30;12.80;99.90
7686;DHT22;3885;51.474;-2.576;2022-07-29T05:51:57;12.90;99.90
7686;DHT22;3885;51.474;-2.576;2022-07-29T05:54:24;13.00;99.90
7686;DHT22;3885;51.474;-2.576;2022-07-29T05:56:52;13.10;99.90
7686;DHT22;3885;51.474;-2.576;2022-07-29T05:59:19;13.20;99.90
7686;DHT22;3885;51.474;-2.576;2022-07-29T06:01:46;13.30;99.90
7686;DHT22;3885;51.474;-2.576;2022-07-29T06:04:13;13.50;99.90
7686;DHT22;3885;51.474;-2.576;2022-07-29T06:06:40;13.50;99.90
7686;DHT22;3885;51.474;-2.576;2022-07-29T06:09:07;13.60;99.90
7686;DHT22;3885;51.474;-2.576;2022-07-29T06:11:34;13.70;99.90
7686;DHT22;3885;51.474;-2.576;2022-07-29T06:14:02;13.80;99.90
7686;DHT22;3885;51.474;-2.576;2022-07-29T06:16:29;13.90;99.90
7686;DHT22;3885;51.474;-2.576;2022-07-29T06:18:56;14.00;99.90
7686;DHT22;3885;51.474;-2.576;2022-07-29T06:21:23;14.20;99.90
7686;DHT22;3885;51.474;-2.576;2022-07-29T06:23:50;14.30;99.90
7686;DHT22;3885;51.474;-2.576;2022-07-29T06:26:17;14.30;99.90
7686;DHT22;3885;51.474;-2.576;2022-07-29T06:28:44;14.50;99.90
7686;DHT22;3885;51.474;-2.576;2022-07-29T06:31:12;14.70;99.90
7686;DHT22;3885;51.474;-2.576;2022-07-29T06:33:39;14.80;99.90
7686;DHT22;3885;51.474;-2.576;2022-07-29T06:36:07;14.80;99.90
7686;DHT22;3885;51.474;-2.576;2022-07-29T06:38:34;15.00;99.90
7686;DHT22;3885;51.474;-2.576;2022-07-29T06:41:01;15.20;99.90
7686;DHT22;3885;51.474;-2.576;2022-07-29T06:43:30;15.50;99.90
7686;DHT22;3885;51.474;-2.576;2022-07-29T06:46:00;15.50;99.90
7686;DHT22;3885;51.474;-2.576;2022-07-29T06:48:28;15.70;99.90
7686;DHT22;3885;51.474;-2.576;2022-07-29T06:50:55;15.90;99.90
7686;DHT22;3885;51.474;-2.576;2022-07-29T06:53:23;16.10;99.90
7686;DHT22;3885;51.474;-2.576;2022-07-29T06:55:49;16.20;99.90
7686;DHT22;3885;51.474;-2.576;2022-07-29T06:58:16;16.40;99.90
7686;DHT22;3885;51.474;-2.576;2022-07-29T07:00:46;16.50;99.90
7686;DHT22;3885;51.474;-2.576;2022-07-29T07:03:13;16.70;99.90
7686;DHT22;3885;51.474;-2.576;2022-07-29T07:05:41;16.80;99.90
7686;DHT22;3885;51.474;-2.576;2022-07-29T07:08:08;17.00;99.90
7686;DHT22;3885;51.474;-2.576;2022-07-29T07:10:35;17.10;99.90
7686;DHT22;3885;51.474;-2.576;2022-07-29T07:13:02;17.30;99.90
7686;DHT22;3885;51.474;-2.576;2022-07-29T07:15:30;17.50;99.90
7686;DHT22;3885;51.474;-2.576;2022-07-29T07:17:57;17.60;99.90
7686;DHT22;3885;51.474;-2.576;2022-07-29T07:20:24;17.70;99.90
7686;DHT22;3885;51.474;-2.576;2022-07-29T07:22:52;17.90;99.90
7686;DHT22;3885;51.474;-2.576;2022-07-29T07:25:19;18.00;99.90
7686;DHT22;3885;51.474;-2.576;2022-07-29T07:27:46;18.00;99.90
7686;DHT22;3885;51.474;-2.576;2022-07-29T07:30:13;18.20;99.90
7686;DHT22;3885;51.474;-2.576;2022-07-29T07:32:40;18.30;99.90
7686;DHT22;3885;51.474;-2.576;2022-07-29T07:35:08;18.40;99.90
7686;DHT22;3885;51.474;-2.576;2022-07-29T07:37:35;18.50;99.90
7686;DHT22;3885;51.474;-2.576;2022-07-29T07:40:05;18.70;99.90
7686;DHT22;3885;51.474;-2.576;2022-07-29T07:42:32;18.90;99.90
7686;DHT22;3885;51.474;-2.576;2022-07-29T07:45:00;19.00;99.90
7686;DHT22;3885;51.474;-2.576;2022-07-29T07:47:27;19.00;99.90
7686;DHT22;3885;51.474;-2.576;2022-07-29T07:49:54;19.20;99.90
7686;DHT22;3885;51.474;-2.576;2022-07-29T07:52:22;19.20;99.90
7686;DHT22;3885;51.474;-2.576;2022-07-29T07:54:49;19.40;99.90
7686;DHT22;3885;51.474;-2.576;2022-07-29T07:57:17;19.60;99.90
7686;DHT22;3885;51.474;-2.576;2022-07-29T07:59:44;19.70;99.90
7686;DHT22;3885;51.474;-2.576;2022-07-29T08:02:11;19.80;99.90
7686;DHT22;3885;51.474;-2.576;2022-07-29T08:04:38;19.80;99.90
7686;DHT22;3885;51.474;-2.576;2022-07-29T08:07:06;19.90;99.90
7686;DHT22;3885;51.474;-2.576;2022-07-29T08:09:34;19.90;99.90
7686;DHT22;3885;51.474;-2.576;2022-07-29T08:12:01;19.90;99.90
7686;DHT22;3885;51.474;-2.576;2022-07-29T08:14:30;20.00;99.90
7686;DHT22;3885;51.474;-2.576;2022-07-29T08:16:57;20.00;99.90
7686;DHT22;3885;51.474;-2.576;2022-07-29T08:19:24;20.10;99.90
7686;DHT22;3885;51.474;-2.576;2022-07-29T08:21:51;20.20;99.90
7686;DHT22;3885;51.474;-2.576;2022-07-29T08:24:19;20.30;99.90
7686;DHT22;3885;51.474;-2.576;2022-07-29T08:27:03;20.30;99.90
7686;DHT22;3885;51.474;-2.576;2022-07-29T08:29:31;20.50;99.90
7686;DHT22;3885;51.474;-2.576;2022-07-29T08:31:58;20.60;99.90
7686;DHT22;3885;51.474;-2.576;2022-07-29T08:34:25;20.60;99.90
7686;DHT22;3885;51.474;-2.576;2022-07-29T08:36:52;20.80;99.90
7686;DHT22;3885;51.474;-2.576;2022-07-29T08:39:19;20.90;99.90
7686;DHT22;3885;51.474;-2.576;2022-07-29T08:41:46;21.10;99.90
7686;DHT22;3885;51.474;-2.576;2022-07-29T08:44:15;21.30;99.90
7686;DHT22;3885;51.474;-2.576;2022-07-29T08:46:44;21.40;99.90
7686;DHT22;3885;51.474;-2.576;2022-07-29T08:49:11;21.50;99.90
7686;DHT22;3885;51.474;-2.576;2022-07-29T08:51:39;21.70;99.90
7686;DHT22;3885;51.474;-2.576;2022-07-29T08:54:08;21.60;99.90
7686;DHT22;3885;51.474;-2.576;2022-07-29T08:56:36;21.50;99.90
7686;DHT22;3885;51.474;-2.576;2022-07-29T08:59:04;21.50;99.90
7686;DHT22;3885;51.474;-2.576;2022-07-29T09:01:33;21.60;99.90
7686;DHT22;3885;51.474;-2.576;2022-07-29T09:04:10;21.50;99.90
7686;DHT22;3885;51.474;-2.576;2022-07-29T09:06:41;21.40;99.90
7686;DHT22;3885;51.474;-2.576;2022-07-29T09:09:09;21.50;99.90
7686;DHT22;3885;51.474;-2.576;2022-07-29T09:11:36;21.70;99.90
7686;DHT22;3885;51.474;-2.576;2022-07-29T09:14:03;21.90;99.90
7686;DHT22;3885;51.474;-2.576;2022-07-29T09:16:44;22.10;99.90
7686;DHT22;3885;51.474;-2.576;2022-07-29T09:19:21;22.20;99.90
7686;DHT22;3885;51.474;-2.576;2022-07-29T09:21:49;22.40;99.90
7686;DHT22;3885;51.474;-2.576;2022-07-29T09:24:26;22.60;99.90
7686;DHT22;3885;51.474;-2.576;2022-07-29T09:26:53;22.70;99.90
7686;DHT22;3885;51.474;-2.576;2022-07-29T09:29:22;22.60;99.90
7686;DHT22;3885;51.474;-2.576;2022-07-29T09:31:51;22.60;99.90
7686;DHT22;3885;51.474;-2.576;2022-07-29T09:34:23;22.70;99.90
7686;DHT22;3885;51.474;-2.576;2022-07-29T09:36:52;22.70;99.90
7686;DHT22;3885;51.474;-2.576;2022-07-29T09:39:29;22.80;99.90
7686;DHT22;3885;51.474;-2.576;2022-07-29T09:41:58;22.80;99.90
7686;DHT22;3885;51.474;-2.576;2022-07-29T09:44:25;22.90;99.90
7686;DHT22;3885;51.474;-2.576;2022-07-29T09:47:02;23.00;99.90
7686;DHT22;3885;51.474;-2.576;2022-07-29T09:49:33;23.10;99.90
7686;DHT22;3885;51.474;-2.576;2022-07-29T09:52:05;23.20;99.90
7686;DHT22;3885;51.474;-2.576;2022-07-29T09:54:33;23.20;99.90
7686;DHT22;3885;51.474;-2.576;2022-07-29T09:57:04;23.10;99.90
7686;DHT22;3885;51.474;-2.576;2022-07-29T09:59:31;23.10;99.90
7686;DHT22;3885;51.474;-2.576;2022-07-29T10:01:58;23.10;99.90
7686;DHT22;3885;51.474;-2.576;2022-07-29T10:04:38;23.40;99.90
7686;DHT22;3885;51.474;-2.576;2022-07-29T10:07:05;23.60;99.90
7686;DHT22;3885;51.474;-2.576;2022-07-29T10:09:33;23.60;99.90
7686;DHT22;3885;51.474;-2.576;2022-07-29T10:12:06;23.90;99.90
7686;DHT22;3885;51.474;-2.576;2022-07-29T10:14:34;24.10;99.90
7686;DHT22;3885;51.474;-2.576;2022-07-29T10:17:03;24.00;99.90
7686;DHT22;3885;51.474;-2.576;2022-07-29T10:19:30;24.00;99.90
7686;DHT22;3885;51.474;-2.576;2022-07-29T10:22:00;24.00;99.90
7686;DHT22;3885;51.474;-2.576;2022-07-29T10:24:28;24.20;99.90
7686;DHT22;3885;51.474;-2.576;2022-07-29T10:26:56;24.20;99.90
7686;DHT22;3885;51.474;-2.576;2022-07-29T10:29:24;24.20;99.90
7686;DHT22;3885;51.474;-2.576;2022-07-29T10:32:02;24.10;99.90
7686;DHT22;3885;51.474;-2.576;2022-07-29T10:34:44;24.30;99.90
7686;DHT22;3885;51.474;-2.576;2022-07-29T10:37:22;24.30;99.90
7686;DHT22;3885;51.474;-2.576;2022-07-29T10:39:57;24.50;99.90
7686;DHT22;3885;51.474;-2.576;2022-07-29T10:42:28;24.50;99.90
7686;DHT22;3885;51.474;-2.576;2022-07-29T10:44:56;24.50;99.90
7686;DHT22;3885;51.474;-2.576;2022-07-29T10:47:24;24.70;99.90
7686;DHT22;3885;51.474;-2.576;2022-07-29T10:49:58;24.80;99.30
7686;DHT22;3885;51.474;-2.576;2022-07-29T10:52:52;24.60;99.60
7686;DHT22;3885;51.474;-2.576;2022-07-29T10:55:35;24.70;99.30
7686;DHT22;3885;51.474;-2.576;2022-07-29T10:58:16;24.70;98.80
7686;DHT22;3885;51.474;-2.576;2022-07-29T11:00:44;24.80;98.90
7686;DHT22;3885;51.474;-2.576;2022-07-29T11:03:43;24.90;98.70
7686;DHT22;3885;51.474;-2.576;2022-07-29T11:06:11;25.00;97.50
7686;DHT22;3885;51.474;-2.576;2022-07-29T11:08:40;24.90;98.30
7686;DHT22;3885;51.474;-2.576;2022-07-29T11:11:34;25.00;98.30
7686;DHT22;3885;51.474;-2.576;2022-07-29T11:14:02;25.10;97.10
7686;DHT22;3885;51.474;-2.576;2022-07-29T11:17:03;25.10;97.30
7686;DHT22;3885;51.474;-2.576;2022-07-29T11:19:30;25.20;96.50
7686;DHT22;3885;51.474;-2.576;2022-07-29T11:21:58;25.20;96.70
7686;DHT22;3885;51.474;-2.576;2022-07-29T11:24:28;25.30;97.20
7686;DHT22;3885;51.474;-2.576;2022-07-29T11:27:14;25.30;96.10
7686;DHT22;3885;51.474;-2.576;2022-07-29T11:29:50;25.10;96.70
7686;DHT22;3885;51.474;-2.576;2022-07-29T11:32:18;25.30;96.80
7686;DHT22;3885;51.474;-2.576;2022-07-29T11:34:47;25.60;96.80
7686;DHT22;3885;51.474;-2.576;2022-07-29T11:37:21;25.70;95.90
7686;DHT22;3885;51.474;-2.576;2022-07-29T11:40:14;25.90;96.10
7686;DHT22;3885;51.474;-2.576;2022-07-29T11:42:44;25.80;95.00
7686;DHT22;3885;51.474;-2.576;2022-07-29T11:45:13;25.80;95.40
7686;DHT22;3885;51.474;-2.576;2022-07-29T11:47:42;25.80;95.70
7686;DHT22;3885;51.474;-2.576;2022-07-29T11:50:15;25.90;95.00
7686;DHT22;3885;51.474;-2.576;2022-07-29T11:52:45;26.10;95.90
7686;DHT22;3885;51.474;-2.576;2022-07-29T11:55:15;25.80;94.80
7686;DHT22;3885;51.474;-2.576;2022-07-29T11:57:47;25.70;95.10
7686;DHT22;3885;51.474;-2.576;2022-07-29T12:00:25;25.60;94.90
7686;DHT22;3885;51.474;-2.576;2022-07-29T12:02:53;25.80;94.70
7686;DHT22;3885;51.474;-2.576;2022-07-29T12:05:20;25.90;94.30
7686;DHT22;3885;51.474;-2.576;2022-07-29T12:07:47;26.10;94.60
7686;DHT22;3885;51.474;-2.576;2022-07-29T12:10:16;26.10;94.20
7686;DHT22;3885;51.474;-2.576;2022-07-29T12:12:51;26.00;93.60
7686;DHT22;3885;51.474;-2.576;2022-07-29T12:15:19;25.90;93.60
7686;DHT22;3885;51.474;-2.576;2022-07-29T12:17:47;26.00;93.60
7686;DHT22;3885;51.474;-2.576;2022-07-29T12:20:22;25.90;93.20
7686;DHT22;3885;51.474;-2.576;2022-07-29T12:22:49;26.10;94.00
7686;DHT22;3885;51.474;-2.576;2022-07-29T12:25:21;26.30;93.70
7686;DHT22;3885;51.474;-2.576;2022-07-29T12:27:57;26.40;93.90
7686;DHT22;3885;51.474;-2.576;2022-07-29T12:30:35;26.60;93.00
7686;DHT22;3885;51.474;-2.576;2022-07-29T12:33:10;26.70;93.30
7686;DHT22;3885;51.474;-2.576;2022-07-29T12:35:38;26.80;92.60
7686;DHT22;3885;51.474;-2.576;2022-07-29T12:38:05;26.60;92.60
7686;DHT22;3885;51.474;-2.576;2022-07-29T12:40:34;26.80;92.60
7686;DHT22;3885;51.474;-2.576;2022-07-29T12:43:10;26.70;92.00
7686;DHT22;3885;51.474;-2.576;2022-07-29T12:45:38;26.60;92.10
7686;DHT22;3885;51.474;-2.576;2022-07-29T12:48:06;26.50;91.90
7686;DHT22;3885;51.474;-2.576;2022-07-29T12:50:35;26.60;92.30
7686;DHT22;3885;51.474;-2.576;2022-07-29T12:53:11;26.90;91.90
7686;DHT22;3885;51.474;-2.576;2022-07-29T12:55:42;27.10;92.20
7686;DHT22;3885;51.474;-2.576;2022-07-29T12:58:09;27.20;92.50
7686;DHT22;3885;51.474;-2.576;2022-07-29T13:00:36;27.20;91.80
7686;DHT22;3885;51.474;-2.576;2022-07-29T13:03:03;27.30;92.10
7686;DHT22;3885;51.474;-2.576;2022-07-29T13:05:41;27.40;91.40
7686;DHT22;3885;51.474;-2.576;2022-07-29T13:08:13;27.50;91.20
7686;DHT22;3885;51.474;-2.576;2022-07-29T13:10:41;27.50;91.30
7686;DHT22;3885;51.474;-2.576;2022-07-29T13:13:10;27.20;91.80
7686;DHT22;3885;51.474;-2.576;2022-07-29T13:15:39;27.20;91.10
7686;DHT22;3885;51.474;-2.576;2022-07-29T13:18:26;27.10;91.10
7686;DHT22;3885;51.474;-2.576;2022-07-29T13:20:53;27.20;91.00
7686;DHT22;3885;51.474;-2.576;2022-07-29T13:23:20;27.20;90.70
7686;DHT22;3885;51.474;-2.576;2022-07-29T13:25:49;27.10;90.70
7686;DHT22;3885;51.474;-2.576;2022-07-29T13:28:16;27.10;90.90
7686;DHT22;3885;51.474;-2.576;2022-07-29T13:30:43;27.30;91.10
7686;DHT22;3885;51.474;-2.576;2022-07-29T13:33:10;27.20;91.00
7686;DHT22;3885;51.474;-2.576;2022-07-29T13:35:37;27.40;91.20
7686;DHT22;3885;51.474;-2.576;2022-07-29T13:38:04;27.50;91.50
7686;DHT22;3885;51.474;-2.576;2022-07-29T13:40:31;27.70;90.90
7686;DHT22;3885;51.474;-2.576;2022-07-29T13:43:02;27.60;90.80
7686;DHT22;3885;51.474;-2.576;2022-07-29T13:45:29;27.70;91.10
7686;DHT22;3885;51.474;-2.576;2022-07-29T13:47:56;27.90;91.00
7686;DHT22;3885;51.474;-2.576;2022-07-29T13:50:22;27.60;90.40
7686;DHT22;3885;51.474;-2.576;2022-07-29T13:52:50;27.60;91.10
7686;DHT22;3885;51.474;-2.576;2022-07-29T13:55:17;27.60;90.90
7686;DHT22;3885;51.474;-2.576;2022-07-29T13:57:44;27.60;91.20
7686;DHT22;3885;51.474;-2.576;2022-07-29T14:00:13;27.40;91.50
7686;DHT22;3885;51.474;-2.576;2022-07-29T14:02:40;27.20;91.60
7686;DHT22;3885;51.474;-2.576;2022-07-29T14:05:08;27.40;91.40
7686;DHT22;3885;51.474;-2.576;2022-07-29T14:07:36;27.60;91.00
7686;DHT22;3885;51.474;-2.576;2022-07-29T14:10:04;27.60;90.70
7686;DHT22;3885;51.474;-2.576;2022-07-29T14:12:31;27.60;90.70
7686;DHT22;3885;51.474;-2.576;2022-07-29T14:14:58;27.70;91.50
7686;DHT22;3885;51.474;-2.576;2022-07-29T14:17:27;27.80;90.40
7686;DHT22;3885;51.474;-2.576;2022-07-29T14:19:53;27.90;90.00
7686;DHT22;3885;51.474;-2.576;2022-07-29T14:22:20;27.90;89.40
7686;DHT22;3885;51.474;-2.576;2022-07-29T14:24:47;27.90;90.30
7686;DHT22;3885;51.474;-2.576;2022-07-29T14:27:14;28.10;90.20
7686;DHT22;3885;51.474;-2.576;2022-07-29T14:29:41;28.40;88.80
7686;DHT22;3885;51.474;-2.576;2022-07-29T14:32:09;28.70;89.00
7686;DHT22;3885;51.474;-2.576;2022-07-29T14:34:38;28.80;88.40
7686;DHT22;3885;51.474;-2.576;2022-07-29T14:37:05;28.80;90.80
7686;DHT22;3885;51.474;-2.576;2022-07-29T14:39:35;28.60;91.00
7686;DHT22;3885;51.474;-2.576;2022-07-29T14:42:02;28.50;91.30
7686;DHT22;3885;51.474;-2.576;2022-07-29T14:44:29;28.30;91.90
7686;DHT22;3885;51.474;-2.576;2022-07-29T14:46:57;28.40;92.60
7686;DHT22;3885;51.474;-2.576;2022-07-29T14:49:25;28.40;92.10
7686;DHT22;3885;51.474;-2.576;2022-07-29T14:51:53;28.50;91.30
7686;DHT22;3885;51.474;-2.576;2022-07-29T14:54:20;28.60;91.50
7686;DHT22;3885;51.474;-2.576;2022-07-29T14:56:47;28.50;91.90
7686;DHT22;3885;51.474;-2.576;2022-07-29T14:59:16;28.50;92.20
7686;DHT22;3885;51.474;-2.576;2022-07-29T15:01:44;28.40;91.30
7686;DHT22;3885;51.474;-2.576;2022-07-29T15:04:11;28.20;91.40
7686;DHT22;3885;51.474;-2.576;2022-07-29T15:06:38;27.80;92.10
7686;DHT22;3885;51.474;-2.576;2022-07-29T15:09:06;27.80;92.60
7686;DHT22;3885;51.474;-2.576;2022-07-29T15:11:33;27.90;92.50
7686;DHT22;3885;51.474;-2.576;2022-07-29T15:14:00;28.00;92.50
7686;DHT22;3885;51.474;-2.576;2022-07-29T15:16:27;27.80;92.40
7686;DHT22;3885;51.474;-2.576;2022-07-29T15:18:54;27.80;92.70
7686;DHT22;3885;51.474;-2.576;2022-07-29T15:21:23;27.90;92.40
7686;DHT22;3885;51.474;-2.576;2022-07-29T15:23:50;27.90;92.40
7686;DHT22;3885;51.474;-2.576;2022-07-29T15:26:18;27.80;92.60
7686;DHT22;3885;51.474;-2.576;2022-07-29T15:28:45;27.80;92.90
7686;DHT22;3885;51.474;-2.576;2022-07-29T15:31:12;27.80;93.10
7686;DHT22;3885;51.474;-2.576;2022-07-29T15:33:39;27.70;92.70
7686;DHT22;3885;51.474;-2.576;2022-07-29T15:36:06;27.80;92.90
7686;DHT22;3885;51.474;-2.576;2022-07-29T15:38:33;28.00;92.80
7686;DHT22;3885;51.474;-2.576;2022-07-29T15:41:00;27.80;91.90
7686;DHT22;3885;51.474;-2.576;2022-07-29T15:43:29;27.60;92.60
7686;DHT22;3885;51.474;-2.576;2022-07-29T15:45:55;27.60;92.30
7686;DHT22;3885;51.474;-2.576;2022-07-29T15:48:40;27.50;92.20
7686;DHT22;3885;51.474;-2.576;2022-07-29T15:51:07;27.40;92.80
7686;DHT22;3885;51.474;-2.576;2022-07-29T15:53:34;27.50;92.60
7686;DHT22;3885;51.474;-2.576;2022-07-29T15:56:01;27.30;92.00
7686;DHT22;3885;51.474;-2.576;2022-07-29T15:58:29;27.30;92.70